Airports and Charts


LSGS - Sion
Flughafeninformationen
Deutsch
Sion ist mitten im Wallis gelegen, das Rhonetal ist wohl eine der charakteristischsten Anhaltspunkte dort. Beim IGS-Anflug, der Piloten in einem steilen Sinkwinkel zum Flugplatz führt und der dann aber am Ende noch nach Sicht angeflogen werden muss, erblickt man so bekannte Dinge wie den Mont Blanc, das Matterhorn und den Aletsch-Gletscher.
Zu einem Flug nach Sion gehört eine ordentliche Flugvorbereitung mit der entsprechenden IGS-Karte und den speziellen Informationen. Landschaftlich und fliegerisch gehört dieser Flugplatz zu einem der schönsten und anspruchsvollsten Orte in Europa!
Runway Preferential runway system
Identifier Approach Dimension Surface
07
(073°)
VISUAL 2000 x 40 m
(6562 x 131 ft)
Asphalt
25
(253°)
ILS/DME

Runway 25 for landings and departures with tailwind components up to 10 kts. Otherwise, runway 07 will be used. Be aware of the high terrain!

METEO Reports
METAR
LSGS
121050Z 24009KT 190V280 9999 FEW080 26/13 Q1021
LSGS
121120Z 25008KT 220V290 9999 FEW080 27/13 Q1020
TAF
TAF LSGS
120825Z 1209/1218 VRB02KT CAVOK
BECMG 1210/1212 25010KT 9999 FEW090

Charts
Charts - LSGS
Sion
  FilenameReleased
F Approach RWY 25 - IGS for MS FS23.01.2011
F Approach RWY 25 - IGS for XPlane01.03.2009
F Approach RWY25 IGS05.03.2012
F Arrival VADAR VALOR05.03.2012
F Departure FRI GOLEB ROCCA SPR05.03.2012
F Departure FRI GOLEB ROCCA SPR High Performance05.03.2012
E General Official Charts08.02.2017
F Ground All Ground05.03.2012
F Package Fullpack05.03.2012

Sceneries
Sceneries - LSGS
Sion
  FilenameReleased
E Payware Flylogic Sion P3D29.10.2020
E Payware Flylogic Sion X FSX29.05.2017
E Payware Redwings Sim Sion MSFS29.10.2020

Stations
KennzeichenNameFrequenz
LSAS_CTR Swiss Radar 128.050 MHz
LSAS_A_CTR Swiss Radar 135.670 MHz
LSAS_B_CTR Swiss Radar 133.900 MHz
LSAS_C_CTR Swiss Radar 135.150 MHz
LSAS_D_CTR Swiss Radar 128.900 MHz
LSAS_F_CTR Swiss Radar 124.020 MHz
LSAS_G_CTR Swiss Radar 134.320 MHz
LSAS_H_CTR Swiss Radar 134.020 MHz
LSAS_J_CTR Swiss Radar 133.620 MHz
LSAS_U_CTR Swiss Radar 133.400 MHz
LSAS_V_CTR Swiss Radar 133.050 MHz
LSAS_I_CTR Swiss Information 124.700 MHz
LSGS_APP Sion Radar 126.820 MHz
LSGS_TWR Sion Tower 118.270 MHz
LSGS_GND Sion Ground 121.700 MHz


 

online atc

  • no controllers are online

bookings overview

events RSS

news RSS

  • Cross The Land Eastbound Voting

    18.04.2020 07:59:09 z

    Das Voting zur Selektion der Flughäfen für das Event Cross The Land vom 13. ...

  • VA Meeting 2020

    17.03.2020 15:08:00 z

    Die vACC Schweiz präsentiert euch stolz die nächste Ausgabe unseres ...

  • Audio For VATSIM

    13.10.2019 19:04:16 z

    Die VATSIM-Infrastruktur wird in den nächsten 24 Stunden ein umfassendes Update ...